Kimble County Airport Junction US
ICAO: KJCT
IATA: JCT
Category: Medium
Scheduled Services: No

Elevation: 1749 ft
TransAlt. 18000 ft.

Airport Communications:
ASOS:119.275
HOUSTON CNTR:125.75
SAN ANGELO RDO:122.3
CTAF/UNICOM:122.8

KJCT Zoom In..

If you have problems with the map follow the link
https://www.worldairports.se/pages/airport.php?
ICAO=KJCT

Runways:

(A) RW 08 length 2255 ft width 130 ft
---- / hdg 84

(B) RW 17 length 5004 ft width 75 ft
---- / hdg 172

(C) RW 26 length 2255 ft width 130 ft
---- / hdg 264

(D) RW 35 length 5004 ft width 75 ft
---- / hdg 352

Location; KJCT
Day. 16 / Time. 10.51 Zulu
* Altimeter: 30.19
* Temperature: -01° c. -30.2°f.
* Wind from: 280° Speed 03 kn.
Dewpoint: -02° c.
Visibility: 10 Statute Miles.
Clouds: Clear (automated report).

KJCT 161051Z AUTO 28003KT 10SM CLR M01/M02 A3019 RMK AO2 SLP208 T10111017


Wind From 280°
Speed 03 kn.

 
 
jpsmedia.com for Web Design worldairports.se 2018   terms of use